contacte
inicio
- ACTUALIZADO a las 18:54
Cámara en vivo
A 5 metros de altura
Dirección Noreste
Datos del día de Hoy
Parameter                   Max   Max Time        Min   Min Time    Average
Wind Direction              360       2:09          5       5:06        112
Wind Speed                   21       7:33          0       0:00          1
Wind Gust                    23       7:33          0       0:30          8
In Humidity                  49       6:48         43       0:00         46
Humidity                     73       6:23         41      18:39         57
In Temp                    32.5      18:13       31.2       9:11       31.8
Out Temp                   34.8      18:39       26.9       6:47       29.9
Raw Barometer           1018.72      12:42    1014.87       5:06    1016.73
Total Rain               266.40       0:00     266.40       0:00     266.40




5/9/26
Time         Wind Dir   Wind Spd  Wind Gust     Hum In   Humidity    Temp In       Temp  Raw Barom   Tot Rain
                    °      km/hr      km/hr          %          %         °C         °C         mb         mm
0:00              221          6         14         43         50       32.2       31.3    1016.46     266.40
0:20              283          0          8         43         53       32.2       30.6    1016.02     266.40
0:40              292          2         10         44         49       32.2       31.1    1015.88     266.40
1:00              286          0         11         44         49       32.2       31.2    1015.75     266.40
1:20              206          0         10         44         49       32.2       31.0    1015.58     266.40
1:40              218          0         16         44         61       32.1       29.4    1016.36     266.40
2:00              200          0         16         45         64       32.1       28.4    1016.09     266.40
2:20              121          0          6         46         64       32.0       28.4    1015.92     266.40
2:40              119          0          2         46         63       32.0       28.3    1015.68     266.40
3:00              236          0          2         46         64       31.9       28.3    1015.75     266.40
3:20              236          0          0         46         64       31.9       28.1    1015.68     266.40
3:40              236          0          0         47         63       31.9       28.2    1015.71     266.40
4:00              308          0          2         47         63       31.8       28.1    1015.48     266.40
4:20              308          0          0         47         64       31.8       27.9    1015.34     266.40
4:40              308          0          0         47         64       31.8       27.7    1015.51     266.40
5:00              325          2          2         47         64       31.7       27.5    1014.97     266.40
5:20                5          0          3         47         63       31.7       27.7    1015.07     266.40
5:40                5          0          0         47         62       31.7       27.8    1015.14     266.40
6:00                5          0          0         47         63       31.6       27.7    1015.41     266.40
6:20                5          0          0         48         71       31.6       27.6    1015.65     266.40
6:40                5          0          0         48         71       31.6       27.1    1015.61     266.40
7:00                5          0          0         49         71       31.6       27.0    1015.98     266.40
7:20              281          2         11         48         65       31.5       27.1    1016.76     266.40
7:40              292          0         21         48         66       31.3       27.1    1016.96     266.40
8:00              291          3         21         48         65       31.3       27.2    1016.73     266.40
8:20              295          0          5         48         65       31.3       27.2    1016.93     266.40
8:40              309          0          5         48         65       31.3       27.2    1017.20     266.40
9:00              313          0          5         48         65       31.3       27.1    1017.54     266.40
9:20              313          0          0         48         65       31.3       27.3    1017.64     266.40
9:40              313          0          0         48         64       31.3       27.6    1017.98     266.40
10:00             316          0          3         48         63       31.3       27.9    1017.91     266.40
10:20             316          0          2         48         62       31.3       28.6    1017.64     266.40
10:40              50          0          5         48         56       31.4       29.6    1017.54     266.40
11:00              76          2          5         47         53       31.6       30.5    1017.67     266.40
11:20             116          0          8         47         55       31.6       30.5    1018.01     266.40
11:40             117          5          6         47         55       31.6       30.6    1018.11     266.40
12:00             134          0         11         47         57       31.6       30.1    1018.38     266.40
12:20             103          3         10         47         56       31.7       30.4    1018.38     266.40
12:40              96          3         11         47         58       31.8       30.6    1018.62     266.40
13:00             113          0         11         47         58       31.8       30.6    1018.35     266.40
13:20             121          0          6         47         59       31.8       30.7    1018.18     266.40
13:40              88          5         10         47         58       31.8       30.5    1017.64     266.40
14:00              86          3         18         47         56       31.8       30.5    1017.94     266.40
14:20             120          0          5         47         56       31.7       30.7    1017.91     266.40
14:40              90          3         11         47         54       31.8       30.9    1017.71     266.40
15:00              24          6         14         47         50       31.8       32.2    1017.57     266.40
15:20              84          2         18         46         46       31.9       32.9    1017.64     266.40
15:40             127          2         10         45         44       32.1       33.6    1017.51     266.40
16:00             121          0         16         44         44       32.2       33.7    1017.27     266.40
16:20             140          0          6         44         44       32.3       33.9    1017.07     266.40
16:40             103          3          5         43         45       32.3       33.9    1016.83     266.40
17:00              93          0          5         44         46       32.4       33.6    1016.59     266.40
17:20              94          0         10         44         46       32.4       33.6    1016.19     266.40
17:40             101          0          3         44         46       32.4       33.6    1016.05     266.40
18:00              94          0          8         44         45       32.4       33.8    1015.78     266.40
18:20              39          2         11         44         44       32.4       34.1    1015.85     266.40
18:40              55          2          5         43         41       32.5       34.8    1015.85     266.40
Miembro de: